15/5 a 26/5 - Inestable con lluvias y nevadas Patagonia, estable y templado/cálido C y N con lluvias y frío al final

Avatar de Usuario
Diecha
Mensajes: 10404
Registrado: Jue Ago 25, 2011 9:31 pm
Ubicación: Lomas de Zamora

Re: 15/5 a 26/5 - Inestable con lluvias y nevadas Patagonia, estable y templado/cálido C y N con lluvias y frío al final

Mensaje por Diecha » Vie May 22, 2020 3:57 pm


Avatar de Usuario
Ernest
Mensajes: 11173
Registrado: Vie Jul 17, 2009 10:54 pm
Ubicación: Balvanera, CABA

Re: 15/5 a 26/5 - Inestable con lluvias y nevadas Patagonia, estable y templado/cálido C y N con lluvias y frío al final

Mensaje por Ernest » Vie May 22, 2020 4:10 pm

Se me pasó un poco la hora, pero a las 16 la localidad más cálida de la red del SMN era Santiago del Estero con 19 grados. El frente ya pasó por Iguazú, que tiene 16,6 grados. Fondea Malargüe con 4,5.
Did you want to talk about the weather, or were you just making chitchat?

Twitter: @ErnestoMeteo

Avatar de Usuario
HernanCba
Mensajes: 2990
Registrado: Sab Mar 02, 2013 1:21 am
Ubicación: Cosquín, Valle de Punilla, Córdoba
Contactar:

Re: 15/5 a 26/5 - Inestable con lluvias y nevadas Patagonia, estable y templado/cálido C y N con lluvias y frío al final

Mensaje por HernanCba » Vie May 22, 2020 4:13 pm

Salió el sol casi completamente y la temperatura se fue a 13°C. Está muy ventoso del sur

Esperemos que se de un buen descenso a partir de las 18


Avatar de Usuario
Carlitos12
Mensajes: 2163
Registrado: Jue Jul 16, 2015 10:39 pm
Ubicación: Ciudad de Corrientes
Contactar:

Re: 15/5 a 26/5 - Inestable con lluvias y nevadas Patagonia, estable y templado/cálido C y N con lluvias y frío al final

Mensaje por Carlitos12 » Vie May 22, 2020 4:17 pm

Frío en Corrientes, 13ºC
Iguazú 93 mm hasta las 15hs, buen acumulado, hace falta



Avatar de Usuario
Ezequiel1995
Mensajes: 969
Registrado: Mar Nov 12, 2019 4:50 pm
Ubicación: Merlo, Buenos Aires
Contactar:

Re: 15/5 a 26/5 - Inestable con lluvias y nevadas Patagonia, estable y templado/cálido C y N con lluvias y frío al final

Mensaje por Ezequiel1995 » Vie May 22, 2020 5:29 pm

Invernal día por acá. Nublado, frío y ventoso.

Avatar de Usuario
Diecha
Mensajes: 10404
Registrado: Jue Ago 25, 2011 9:31 pm
Ubicación: Lomas de Zamora

Re: 15/5 a 26/5 - Inestable con lluvias y nevadas Patagonia, estable y templado/cálido C y N con lluvias y frío al final

Mensaje por Diecha » Vie May 22, 2020 5:32 pm

- San Fernando 17 hs: SADF 222000Z 16012KT 9999 BKN025 OVC100 15/10 Q1023
- Aeroparque 17 hs: SABE 222000Z 16013G23KT 9999 BKN020 OVC100 15/10 Q1023 (ráfaga de 43 Km/h)
- Ezeiza 17 hs: SAEZ 222000Z 18008KT CAVOK 14/12 Q1023

Imagen
Imagen
Imagen

Avatar de Usuario
pupy
Mensajes: 2342
Registrado: Mar Mar 02, 2010 7:15 pm
Ubicación: Cordoba capital

Re: 15/5 a 26/5 - Inestable con lluvias y nevadas Patagonia, estable y templado/cálido C y N con lluvias y frío al final

Mensaje por pupy » Vie May 22, 2020 6:16 pm

Cordoba aero T 12.6 C Despejado
Cordoba obs. T 13 C algo nublado

Hora 18:00


Responder